< Cyclone 197315 1986 Season Cyclone 198602 >
Cyclone 198601 (NICHOLAS)
General InformationDetailed Track InformationTrack Information on Google MapsList of All Images || ResourceGoogle EarthGE AnimationAtom FeedGeoJSON
Detalied Best Track Wind (Time Zone = UTC)
Year Month Day Hour Lat. Long. Wind (kt) Gust (kt) Direc. of Major Storm Axis Radius of Major Storm Axis (nm) Radius of Minor Storm Axis (nm) Direc. of Major Gale Axis Radius of Major Gale Axis (nm) Radius of Minor Gale Axis (nm) Image
1985 11 26 00 -6.5 102.2 21 -1 symmetric - - symmetric - - Image
1985 11 26 06 -6.7 102.2 23 -1 symmetric - - symmetric - - Image
1985 11 26 12 -7.0 102.1 23 -1 symmetric - - symmetric - - Image
1985 11 26 18 -7.3 102.0 25 -1 symmetric - - symmetric - - Image
1985 11 27 00 -7.6 102.0 25 -1 symmetric - - symmetric - - Image
1985 11 27 06 -7.9 101.9 27 -1 symmetric - - symmetric - - Image
1985 11 27 12 -8.2 101.7 27 -1 symmetric - - symmetric - - Image
1985 11 27 18 -8.4 101.3 31 -1 symmetric - - symmetric - - Image
1985 11 28 00 -8.7 101.0 33 -1 symmetric - - symmetric - - Image
1985 11 28 06 -9.2 100.9 37 -1 symmetric - - symmetric - - Image
1985 11 28 12 -9.6 101.3 39 -1 symmetric - - symmetric - - Image
1985 11 28 18 -9.9 101.7 43 -1 symmetric - - symmetric - - Image
1985 11 29 00 -10.1 102.1 43 -1 symmetric - - symmetric - - Image
1985 11 29 06 -10.4 102.7 43 -1 symmetric - - symmetric - - Image
1985 11 29 12 -10.5 103.1 45 -1 symmetric - - symmetric - - Image
1985 11 29 18 -10.6 103.6 47 -1 symmetric - - symmetric - - Image
1985 11 30 00 -10.6 104.1 51 -1 symmetric - - symmetric - - Image
1985 11 30 06 -10.7 104.9 51 -1 symmetric - - symmetric - - Image
1985 11 30 12 -10.7 105.8 53 -1 symmetric - - symmetric - - Image
1985 11 30 18 -10.6 106.5 54 -1 symmetric - - symmetric - - Image
1985 12 1 00 -10.4 107.4 60 -1 symmetric - - symmetric - - Image
1985 12 1 06 -10.2 108.4 66 -1 symmetric - - symmetric - - Image
1985 12 1 12 -10.2 109.4 70 -1 symmetric - - symmetric - - Image
1985 12 1 18 -10.1 110.2 70 -1 symmetric - - symmetric - - Image
1985 12 2 00 -10.2 110.8 74 -1 symmetric - - symmetric - - Image
1985 12 2 06 -10.3 111.5 76 -1 symmetric - - symmetric - - Image
1985 12 2 12 -10.2 112.2 76 -1 symmetric - - symmetric - - Image
1985 12 2 18 -10.1 112.6 80 -1 symmetric - - symmetric - - Image
1985 12 3 00 -10.0 113.0 86 -1 symmetric - - symmetric - - Image
1985 12 3 06 -9.9 113.3 89 -1 symmetric - - symmetric - - Image
1985 12 3 12 -9.8 113.9 99 -1 symmetric - - symmetric - - Image
1985 12 3 18 -9.9 114.2 97 -1 symmetric - - symmetric - - Image
1985 12 4 00 -10.1 114.2 93 -1 symmetric - - symmetric - - Image
1985 12 4 06 -10.4 114.3 89 -1 symmetric - - symmetric - - Image
1985 12 4 12 -10.7 114.5 86 -1 symmetric - - symmetric - - Image
1985 12 4 18 -11.1 114.5 86 -1 symmetric - - symmetric - - Image
1985 12 5 00 -11.4 114.7 84 -1 symmetric - - symmetric - - Image
1985 12 5 06 -11.6 114.7 84 -1 symmetric - - symmetric - - Image
1985 12 5 12 -11.8 114.8 80 -1 symmetric - - symmetric - - Image
1985 12 5 18 -12.2 114.8 70 -1 symmetric - - symmetric - - Image
1985 12 6 00 -12.7 114.6 64 -1 symmetric - - symmetric - - Image
1985 12 6 06 -13.3 114.1 54 -1 symmetric - - symmetric - - Image
1985 12 6 12 -14.0 113.7 43 -1 symmetric - - symmetric - - Image
1985 12 6 18 -14.6 114.0 33 -1 symmetric - - symmetric - - Image
1985 12 7 00 -14.8 114.3 33 -1 symmetric - - symmetric - - Image
1985 12 7 06 -15.2 114.1 33 -1 symmetric - - symmetric - - Image
1985 12 7 12 -15.5 113.8 25 -1 symmetric - - symmetric - - Image
< Cyclone 197315 1986 Season Cyclone 198602 >

Help